Provo, Utah
Current Conditions -  °F | °C
As of 6:55 AM on Sunday 21 Dec 2014 (Local Time) from KPVU Reporting Station
Overcast Overcast  
Wind Chill:   Ceiling: 1900
Heat Index:   Visibility: 10mi
Dew Point:   Wind: 3mph
Humidity: 87%   Direction: 190°S
Pressure: 30.03"   Gusts: NA
Location:  40.23°N, 111.66°W
Report Text: KPVU 211355Z AUTO 19003KT 10SM BKN019 OVC026 03/01 A3003 RMK AO1 P0008
Loading
Personal Weather Stations






























Interactive Weather Map New forecast layout! Learn more

10-Day Weather Forecast

Advertisements
Track Severe Weather on mobile